createdAt,value
2018-11-05T00:00:32.227Z,18.52
2018-11-05T00:01:19.612Z,18.85
2018-11-05T00:02:06.644Z,19.23
2018-11-05T00:02:53.586Z,18.40
2018-11-05T00:03:40.703Z,18.90
2018-11-05T00:04:29.575Z,19.73
2018-11-05T00:05:16.592Z,18.82
2018-11-05T00:06:03.946Z,18.65
2018-11-05T00:06:51.040Z,18.65
2018-11-05T00:07:38.181Z,18.87
2018-11-05T00:08:25.399Z,18.95
2018-11-05T00:09:13.105Z,20.40
2018-11-05T00:10:00.164Z,18.32
2018-11-05T00:10:47.078Z,18.20
2018-11-05T00:11:34.010Z,17.48
2018-11-05T00:12:21.070Z,19.32
2018-11-05T00:13:08.221Z,16.37
2018-11-05T00:13:55.205Z,18.30
2018-11-05T00:14:42.629Z,18.07
2018-11-05T00:15:29.809Z,16.73
2018-11-05T00:16:17.149Z,18.00
2018-11-05T00:17:04.356Z,18.62
2018-11-05T00:17:51.432Z,18.70
2018-11-05T00:18:38.408Z,17.37
2018-11-05T00:19:25.548Z,16.80
2018-11-05T00:20:12.780Z,17.52
2018-11-05T00:20:59.825Z,17.40
2018-11-05T00:21:47.144Z,17.75
2018-11-05T00:22:34.283Z,17.35
2018-11-05T00:23:21.341Z,18.37
2018-11-05T00:24:10.976Z,18.45
2018-11-05T00:24:58.134Z,19.67
2018-11-05T00:25:45.063Z,17.50
2018-11-05T00:26:32.105Z,18.20
2018-11-05T00:27:19.254Z,17.42
2018-11-05T00:28:06.605Z,17.55
2018-11-05T00:28:53.502Z,17.05
2018-11-05T00:29:41.602Z,18.23
2018-11-05T00:30:28.665Z,17.25
2018-11-05T00:31:15.750Z,18.32
2018-11-05T00:32:02.756Z,16.97
2018-11-05T00:32:49.786Z,17.95
2018-11-05T00:33:36.626Z,16.85
2018-11-05T00:34:23.779Z,16.62
2018-11-05T00:35:10.871Z,18.62
2018-11-05T00:35:58.017Z,17.48
2018-11-05T00:36:45.228Z,17.50
2018-11-05T00:37:33.076Z,16.82
2018-11-05T00:38:20.305Z,16.07
2018-11-05T00:39:09.723Z,16.87
2018-11-05T00:39:56.620Z,18.52
2018-11-05T00:40:43.751Z,17.65
2018-11-05T00:41:30.449Z,17.20
2018-11-05T00:42:17.919Z,17.35
2018-11-05T00:43:05.364Z,17.40
2018-11-05T00:43:52.251Z,18.05
2018-11-05T00:44:46.742Z,16.77
2018-11-05T00:45:33.635Z,17.52
2018-11-05T00:46:21.047Z,16.82
2018-11-05T00:47:08.175Z,16.37
2018-11-05T00:47:55.388Z,16.93
2018-11-05T00:48:42.230Z,16.85
2018-11-05T00:49:29.378Z,19.92
2018-11-05T00:50:16.731Z,18.20
2018-11-05T00:51:04.113Z,16.70
2018-11-05T00:51:51.079Z,17.60
2018-11-05T00:52:38.065Z,17.60
2018-11-05T00:53:25.468Z,17.73
2018-11-05T00:54:12.724Z,17.15
2018-11-05T00:54:59.373Z,18.07
2018-11-05T00:55:46.565Z,16.07
2018-11-05T00:56:34.097Z,18.00
2018-11-05T00:57:20.896Z,18.40
2018-11-05T00:58:07.928Z,16.90
2018-11-05T00:58:54.711Z,16.90
2018-11-05T00:59:41.750Z,18.17
2018-11-05T01:00:28.807Z,18.70
2018-11-05T01:01:15.951Z,18.15
2018-11-05T01:02:03.269Z,17.80
2018-11-05T01:02:50.092Z,18.25
2018-11-05T01:03:36.932Z,16.97
2018-11-05T01:04:23.856Z,17.45
2018-11-05T01:05:12.190Z,18.90
2018-11-05T01:05:59.304Z,17.35
2018-11-05T01:06:46.583Z,18.17
2018-11-05T01:07:37.509Z,17.57
2018-11-05T01:08:24.476Z,18.42
2018-11-05T01:09:11.361Z,18.55
2018-11-05T01:09:58.536Z,19.07
2018-11-05T01:10:45.861Z,22.87
2018-11-05T01:11:32.691Z,20.70
2018-11-05T01:12:19.864Z,20.43
2018-11-05T01:13:08.087Z,19.73
2018-11-05T01:13:54.922Z,20.77
2018-11-05T01:14:41.986Z,18.57
2018-11-05T01:15:28.961Z,19.23
2018-11-05T01:16:17.660Z,19.15
2018-11-05T01:17:05.398Z,19.73
2018-11-05T01:17:52.547Z,19.40
2018-11-05T01:18:44.050Z,18.25
2018-11-05T01:19:31.153Z,18.98
2018-11-05T01:20:18.304Z,16.87
2018-11-05T01:21:05.657Z,17.48
2018-11-05T01:21:52.707Z,19.35
2018-11-05T01:22:39.543Z,19.75
2018-11-05T01:23:29.670Z,18.02
2018-11-05T01:24:16.995Z,20.20
2018-11-05T01:25:04.634Z,18.42
2018-11-05T01:25:51.558Z,18.30
2018-11-05T01:26:38.770Z,17.92
2018-11-05T01:27:26.082Z,19.98
2018-11-05T01:28:13.011Z,20.55
2018-11-05T01:29:00.013Z,20.20
2018-11-05T01:29:47.006Z,19.37
2018-11-05T01:30:34.075Z,18.80
2018-11-05T01:31:21.493Z,19.80
2018-11-05T01:32:08.161Z,18.75
2018-11-05T01:32:55.209Z,21.10
2018-11-05T01:33:42.229Z,19.65
2018-11-05T01:34:29.289Z,21.42
2018-11-05T01:35:16.412Z,17.90
2018-11-05T01:36:03.633Z,18.73
2018-11-05T01:36:50.604Z,21.52
2018-11-05T01:37:37.587Z,18.82
2018-11-05T01:38:24.859Z,19.55
2018-11-05T01:39:11.705Z,18.37
2018-11-05T01:39:58.971Z,21.15
2018-11-05T01:40:33.115Z,18.40
2018-11-05T01:41:20.228Z,21.62
2018-11-05T01:42:06.906Z,18.05
2018-11-05T01:42:54.317Z,18.20
2018-11-05T01:43:41.321Z,18.12
2018-11-05T01:44:28.437Z,18.15
2018-11-05T01:45:15.511Z,18.10
2018-11-05T01:46:02.409Z,19.57
2018-11-05T01:46:49.571Z,18.12
2018-11-05T01:47:37.632Z,18.35
2018-11-05T01:48:24.757Z,19.27
2018-11-05T01:49:11.693Z,19.23
2018-11-05T01:49:58.677Z,17.35
2018-11-05T01:50:45.520Z,17.87
2018-11-05T01:51:32.560Z,18.50
2018-11-05T01:52:19.513Z,18.23
2018-11-05T01:53:07.381Z,17.50
2018-11-05T01:53:54.838Z,18.70
2018-11-05T01:54:42.606Z,19.82
2018-11-05T01:55:29.558Z,20.27
2018-11-05T01:56:19.751Z,18.85
2018-11-05T01:57:06.758Z,19.40
2018-11-05T01:57:53.946Z,20.15
2018-11-05T01:58:40.998Z,19.02
2018-11-05T01:59:28.456Z,18.73
2018-11-05T02:00:16.744Z,19.15
2018-11-05T02:01:04.313Z,19.77
2018-11-05T02:01:51.401Z,20.75
2018-11-05T02:02:38.533Z,17.92
2018-11-05T02:03:25.538Z,18.52
2018-11-05T02:04:12.674Z,17.82
2018-11-05T02:04:59.668Z,18.57
2018-11-05T02:05:46.822Z,18.77
2018-11-05T02:06:33.829Z,17.42
2018-11-05T02:07:20.680Z,18.52
2018-11-05T02:08:07.701Z,18.95
2018-11-05T02:08:54.715Z,18.02
2018-11-05T02:09:41.757Z,18.75
2018-11-05T02:10:28.980Z,18.37
2018-11-05T02:11:15.896Z,17.25
2018-11-05T02:12:02.977Z,16.97
2018-11-05T02:12:50.151Z,18.00
2018-11-05T02:13:36.943Z,17.07
2018-11-05T02:14:24.969Z,18.10
2018-11-05T02:15:12.334Z,17.90
2018-11-05T02:15:59.488Z,18.37
2018-11-05T02:16:46.439Z,17.42
2018-11-05T02:17:33.674Z,17.15
2018-11-05T02:18:20.499Z,18.65
2018-11-05T02:19:07.612Z,17.98
2018-11-05T02:19:54.376Z,17.25
2018-11-05T02:20:41.435Z,17.87
2018-11-05T02:21:28.500Z,18.45
2018-11-05T02:22:15.446Z,18.95
2018-11-05T02:23:02.484Z,16.70
2018-11-05T02:23:49.516Z,16.60
2018-11-05T02:24:36.212Z,18.82
2018-11-05T02:25:23.328Z,17.52
2018-11-05T02:26:10.306Z,17.20
2018-11-05T02:26:57.466Z,16.45
2018-11-05T02:27:44.290Z,19.35
2018-11-05T02:28:31.376Z,18.07
2018-11-05T02:29:18.289Z,18.02
2018-11-05T02:30:14.583Z,17.12
2018-11-05T02:31:01.623Z,17.90
2018-11-05T02:31:48.554Z,16.60
2018-11-05T02:32:37.810Z,17.30
2018-11-05T02:33:24.734Z,17.77
2018-11-05T02:34:13.253Z,16.87
2018-11-05T02:35:00.422Z,17.77
2018-11-05T02:35:47.688Z,18.05
2018-11-05T02:36:34.779Z,17.00
2018-11-05T02:37:22.745Z,17.25
2018-11-05T02:38:09.799Z,17.82
2018-11-05T02:38:57.009Z,18.25
2018-11-05T02:39:43.791Z,17.25
2018-11-05T02:40:31.208Z,17.10
2018-11-05T02:41:18.122Z,18.90
2018-11-05T02:42:05.314Z,19.55
2018-11-05T02:42:53.535Z,17.57
2018-11-05T02:43:40.374Z,19.50
2018-11-05T02:44:27.605Z,17.77
2018-11-05T02:45:15.816Z,19.40
2018-11-05T02:46:02.933Z,19.62
2018-11-05T02:46:50.298Z,17.82
2018-11-05T02:47:37.767Z,17.52
2018-11-05T02:48:24.935Z,17.95
2018-11-05T02:49:12.047Z,18.02
2018-11-05T02:49:58.954Z,17.73
2018-11-05T02:50:45.975Z,19.10
2018-11-05T02:51:33.127Z,18.85
2018-11-05T02:52:20.075Z,17.20
2018-11-05T02:53:07.307Z,18.37
2018-11-05T02:53:54.294Z,19.87
2018-11-05T02:54:41.144Z,18.85
2018-11-05T02:55:28.160Z,19.57
2018-11-05T02:56:14.984Z,18.92
2018-11-05T02:57:02.054Z,18.45
2018-11-05T02:57:49.028Z,17.40
2018-11-05T02:58:36.028Z,18.73
2018-11-05T02:59:22.876Z,19.82
2018-11-05T03:00:12.477Z,19.00
2018-11-05T03:00:59.326Z,18.98
2018-11-05T03:01:46.348Z,18.32
2018-11-05T03:02:33.339Z,18.00
2018-11-05T03:03:20.584Z,18.12
2018-11-05T03:04:07.366Z,17.98
2018-11-05T03:04:54.368Z,18.80
2018-11-05T03:05:41.445Z,17.73
2018-11-05T03:06:28.533Z,17.73
2018-11-05T03:07:15.319Z,17.17
2018-11-05T03:08:02.375Z,17.73
2018-11-05T03:08:49.448Z,18.87
2018-11-05T03:09:40.495Z,17.70
2018-11-05T03:10:27.651Z,16.40
2018-11-05T03:11:14.586Z,18.05
2018-11-05T03:12:01.540Z,17.50
2018-11-05T03:12:48.704Z,18.37
2018-11-05T03:13:35.854Z,18.10
2018-11-05T03:14:22.622Z,19.65
2018-11-05T03:15:11.525Z,17.85
2018-11-05T03:15:58.754Z,17.67
2018-11-05T03:16:46.001Z,18.67
2018-11-05T03:17:33.296Z,19.05
2018-11-05T03:18:20.397Z,18.32
2018-11-05T03:19:07.506Z,18.05
2018-11-05T03:19:54.619Z,20.25
2018-11-05T03:20:41.490Z,18.32
2018-11-05T03:21:28.629Z,21.50
2018-11-05T03:22:15.659Z,18.10
2018-11-05T03:23:02.782Z,18.70
2018-11-05T03:23:49.780Z,18.12
2018-11-05T03:24:36.731Z,17.92
2018-11-05T03:25:23.783Z,18.25
2018-11-05T03:26:10.833Z,18.23
2018-11-05T03:26:57.858Z,18.02
2018-11-05T03:27:44.692Z,18.32
2018-11-05T03:28:31.797Z,19.10
2018-11-05T03:29:18.781Z,17.17
2018-11-05T03:30:14.689Z,18.55
2018-11-05T03:31:01.495Z,16.65
2018-11-05T03:31:48.187Z,19.77
2018-11-05T03:32:35.213Z,19.55
2018-11-05T03:33:22.420Z,18.75
2018-11-05T03:34:09.284Z,18.35
2018-11-05T03:34:56.210Z,18.48
2018-11-05T03:35:43.358Z,17.12
2018-11-05T03:36:30.504Z,18.23
2018-11-05T03:37:17.383Z,18.85
2018-11-05T03:38:04.519Z,17.80
2018-11-05T03:38:51.604Z,18.45
2018-11-05T03:39:38.674Z,17.32
2018-11-05T03:40:25.788Z,18.05
2018-11-05T03:41:13.177Z,18.32
2018-11-05T03:42:00.133Z,18.60
2018-11-05T03:42:47.318Z,17.87
2018-11-05T03:43:34.314Z,18.30
2018-11-05T03:44:21.543Z,19.80
2018-11-05T03:45:10.208Z,19.95
2018-11-05T03:45:57.116Z,19.37
2018-11-05T03:46:44.299Z,20.43
2018-11-05T03:47:31.431Z,17.85
2018-11-05T03:48:18.431Z,19.52
2018-11-05T03:49:06.556Z,19.30
2018-11-05T03:49:53.574Z,18.40
2018-11-05T03:50:40.654Z,18.92
2018-11-05T03:51:27.587Z,19.65
2018-11-05T03:52:14.672Z,19.12
2018-11-05T03:53:01.497Z,18.37
2018-11-05T03:53:48.592Z,18.73
2018-11-05T03:54:35.637Z,18.52
2018-11-05T03:55:22.858Z,19.95
2018-11-05T03:56:09.819Z,18.92
2018-11-05T03:56:56.644Z,19.77
2018-11-05T03:57:43.477Z,18.17
2018-11-05T03:58:30.688Z,19.90
2018-11-05T03:59:17.986Z,19.75
2018-11-05T04:00:05.612Z,19.48
2018-11-05T04:00:52.448Z,20.60
2018-11-05T04:01:39.291Z,20.23
2018-11-05T04:02:26.401Z,19.48
2018-11-05T04:03:13.600Z,20.50
2018-11-05T04:04:00.625Z,19.23
2018-11-05T04:04:47.670Z,18.82
2018-11-05T04:05:34.948Z,19.60
2018-11-05T04:06:21.823Z,20.17
2018-11-05T04:07:08.720Z,19.17
2018-11-05T04:07:55.668Z,19.23
2018-11-05T04:08:42.719Z,18.23
2018-11-05T04:09:29.981Z,19.45
2018-11-05T04:10:16.816Z,18.65
2018-11-05T04:11:03.845Z,19.15
2018-11-05T04:11:50.923Z,19.75
2018-11-05T04:12:37.983Z,19.55
2018-11-05T04:13:25.401Z,20.80
2018-11-05T04:14:12.148Z,20.55
2018-11-05T04:15:01.959Z,20.65
2018-11-05T04:15:48.999Z,20.52
2018-11-05T04:16:36.257Z,20.40
2018-11-05T04:17:23.135Z,19.95
2018-11-05T04:18:09.968Z,20.45
2018-11-05T04:18:59.740Z,19.20
2018-11-05T04:19:46.617Z,20.57
2018-11-05T04:20:34.033Z,20.35
2018-11-05T04:21:21.205Z,20.68
2018-11-05T04:22:08.339Z,20.02
2018-11-05T04:22:55.550Z,21.95
2018-11-05T04:23:43.008Z,20.12
2018-11-05T04:24:29.795Z,19.75
2018-11-05T04:25:16.860Z,20.12
2018-11-05T04:26:04.136Z,22.93
2018-11-05T04:26:51.270Z,21.15
2018-11-05T04:27:38.335Z,20.70
2018-11-05T04:28:25.362Z,21.23
2018-11-05T04:29:12.499Z,21.37
2018-11-05T04:29:59.579Z,21.00
2018-11-05T04:30:46.399Z,20.82
2018-11-05T04:31:33.546Z,21.20
2018-11-05T04:32:20.773Z,19.70
2018-11-05T04:33:07.771Z,20.68
2018-11-05T04:33:54.810Z,22.05
2018-11-05T04:34:41.890Z,21.73
2018-11-05T04:35:28.880Z,21.65
2018-11-05T04:36:15.983Z,20.65
2018-11-05T04:37:03.090Z,21.77
2018-11-05T04:37:50.000Z,20.00
2018-11-05T04:38:37.213Z,19.92
2018-11-05T04:39:24.222Z,21.57
2018-11-05T04:40:11.569Z,20.10
2018-11-05T04:40:58.650Z,21.37
2018-11-05T04:41:45.722Z,19.42
2018-11-05T04:42:32.894Z,20.23
2018-11-05T04:43:20.028Z,20.50
2018-11-05T04:44:07.105Z,21.45
2018-11-05T04:44:54.289Z,21.93
2018-11-05T04:45:41.340Z,22.00
2018-11-05T04:46:28.343Z,21.40
2018-11-05T04:47:15.364Z,22.82
2018-11-05T04:48:02.273Z,22.32
2018-11-05T04:48:49.245Z,23.32
2018-11-05T04:49:36.685Z,22.70
2018-11-05T04:50:23.962Z,22.20
2018-11-05T04:51:10.917Z,23.15
2018-11-05T04:51:57.944Z,23.20
2018-11-05T04:52:44.740Z,22.62
2018-11-05T04:53:31.885Z,21.57
2018-11-05T04:54:18.757Z,21.05
2018-11-05T04:55:06.117Z,22.17
2018-11-05T04:55:53.039Z,21.40
2018-11-05T04:56:40.088Z,22.27
2018-11-05T04:57:27.423Z,21.82
2018-11-05T04:58:14.291Z,22.90
2018-11-05T04:59:01.308Z,21.15
2018-11-05T04:59:48.275Z,21.27
2018-11-05T05:00:35.243Z,22.35
2018-11-05T05:01:22.010Z,22.62
2018-11-05T05:02:08.889Z,21.50
2018-11-05T05:02:55.807Z,22.15
2018-11-05T05:03:42.803Z,21.15
2018-11-05T05:04:29.852Z,21.65
2018-11-05T05:05:17.159Z,22.65
2018-11-05T05:06:04.112Z,22.87
2018-11-05T05:06:53.888Z,21.33
2018-11-05T05:07:41.262Z,21.57
2018-11-05T05:08:28.173Z,20.23
2018-11-05T05:09:15.521Z,21.87
2018-11-05T05:10:02.842Z,21.73
2018-11-05T05:10:50.420Z,21.30
2018-11-05T05:12:20.363Z,22.87
2018-11-05T05:13:07.524Z,21.75
2018-11-05T05:13:54.839Z,21.80
2018-11-05T05:14:43.985Z,22.42
2018-11-05T05:15:30.837Z,21.52
2018-11-05T05:16:17.760Z,21.25
2018-11-05T05:17:04.902Z,21.27
2018-11-05T05:17:51.642Z,20.70
2018-11-05T05:18:38.957Z,20.70
2018-11-05T05:19:31.618Z,21.23
2018-11-05T05:20:21.453Z,20.27
2018-11-05T05:21:13.734Z,19.95
2018-11-05T05:22:00.832Z,21.30
2018-11-05T05:22:47.897Z,21.45
2018-11-05T05:23:34.528Z,20.10
2018-11-05T05:24:21.574Z,20.32
2018-11-05T05:25:08.920Z,21.73
2018-11-05T05:25:55.975Z,19.95
2018-11-05T05:26:43.147Z,20.80
2018-11-05T05:27:30.248Z,21.30
2018-11-05T05:28:17.344Z,20.52
2018-11-05T05:29:04.556Z,21.73
2018-11-05T05:29:51.788Z,20.92
2018-11-05T05:30:38.688Z,20.92
2018-11-05T05:31:25.735Z,20.92
2018-11-05T05:32:12.907Z,21.42
2018-11-05T05:33:00.090Z,22.15
2018-11-05T05:33:46.936Z,21.95
2018-11-05T05:34:33.811Z,21.60
2018-11-05T05:35:20.788Z,22.95
2018-11-05T05:36:07.813Z,20.77
2018-11-05T05:36:54.648Z,22.27
2018-11-05T05:37:42.522Z,21.80
2018-11-05T05:38:29.814Z,20.82
2018-11-05T05:39:16.731Z,22.60
2018-11-05T05:40:03.657Z,23.55
2018-11-05T05:40:50.768Z,22.48
2018-11-05T05:41:37.799Z,22.55
2018-11-05T05:42:24.451Z,22.07
2018-11-05T05:43:11.551Z,23.35
2018-11-05T05:43:58.473Z,23.87
2018-11-05T05:44:45.622Z,22.15
2018-11-05T05:45:32.697Z,22.45
2018-11-05T05:46:19.751Z,21.77
2018-11-05T05:47:06.826Z,24.00
2018-11-05T05:47:53.549Z,21.40
2018-11-05T05:48:43.533Z,21.33
2018-11-05T05:49:31.830Z,21.90
2018-11-05T05:50:19.058Z,22.07
2018-11-05T05:51:06.341Z,21.30
2018-11-05T05:51:53.289Z,20.00
2018-11-05T05:52:41.638Z,24.00
2018-11-05T05:53:28.758Z,22.10
2018-11-05T05:54:15.684Z,22.67
2018-11-05T05:55:03.105Z,21.85
2018-11-05T05:55:49.856Z,21.52
2018-11-05T05:56:36.940Z,22.70
2018-11-05T05:57:23.901Z,21.60
2018-11-05T05:58:10.992Z,21.57
2018-11-05T05:58:57.912Z,21.00
2018-11-05T05:59:44.974Z,22.25
2018-11-05T06:00:32.514Z,22.13
2018-11-05T06:01:19.509Z,21.45
2018-11-05T06:02:06.998Z,21.02
2018-11-05T06:02:54.158Z,22.30
2018-11-05T06:03:41.254Z,21.42
2018-11-05T06:04:28.125Z,20.85
2018-11-05T06:05:15.536Z,20.02
2018-11-05T06:06:02.802Z,20.43
2018-11-05T06:06:49.700Z,20.80
2018-11-05T06:07:36.720Z,21.15
2018-11-05T06:08:23.595Z,22.25
2018-11-05T06:09:10.935Z,20.97
2018-11-05T06:09:58.097Z,21.35
2018-11-05T06:10:45.201Z,21.30
2018-11-05T06:11:32.154Z,21.82
2018-11-05T06:12:19.226Z,22.13
2018-11-05T06:13:06.433Z,20.95
2018-11-05T06:13:53.215Z,20.37
2018-11-05T06:14:40.252Z,19.75
2018-11-05T06:15:27.482Z,20.60
2018-11-05T06:16:14.497Z,20.92
2018-11-05T06:17:01.518Z,21.57
2018-11-05T06:17:48.420Z,20.65
2018-11-05T06:18:35.421Z,21.15
2018-11-05T06:19:22.416Z,20.17
2018-11-05T06:20:11.907Z,20.40
2018-11-05T06:20:58.699Z,20.08
2018-11-05T06:21:45.663Z,20.62
2018-11-05T06:22:32.483Z,20.52
2018-11-05T06:23:19.516Z,20.00
2018-11-05T06:24:06.452Z,19.57
2018-11-05T06:24:53.444Z,20.68
2018-11-05T06:25:40.558Z,19.57
2018-11-05T06:26:27.424Z,21.00
2018-11-05T06:27:14.172Z,19.87
2018-11-05T06:28:01.036Z,19.87
2018-11-05T06:28:48.470Z,21.02
2018-11-05T06:29:36.326Z,20.55
2018-11-05T06:30:23.693Z,20.10
2018-11-05T06:31:10.980Z,20.17
2018-11-05T06:31:58.196Z,19.32
2018-11-05T06:32:46.116Z,19.07
2018-11-05T06:33:33.147Z,20.45
2018-11-05T06:34:20.281Z,20.02
2018-11-05T06:35:08.212Z,20.60
2018-11-05T06:35:55.470Z,20.10
2018-11-05T06:36:42.381Z,21.45
2018-11-05T06:37:29.183Z,20.23
2018-11-05T06:38:16.250Z,19.32
2018-11-05T06:39:04.553Z,19.67
2018-11-05T06:39:51.348Z,19.73
2018-11-05T06:40:38.450Z,20.57
2018-11-05T06:41:25.746Z,20.45
2018-11-05T06:42:12.462Z,18.92
2018-11-05T06:42:59.462Z,20.17
2018-11-05T06:43:46.753Z,19.32
2018-11-05T06:44:33.743Z,19.92
2018-11-05T06:45:21.832Z,20.02
2018-11-05T06:46:08.676Z,19.62
2018-11-05T06:46:55.653Z,19.52
2018-11-05T06:47:47.775Z,20.25
2018-11-05T06:48:39.320Z,19.52
2018-11-05T06:49:29.492Z,19.87
2018-11-05T06:50:19.001Z,19.62
2018-11-05T06:51:06.416Z,18.50
2018-11-05T06:51:54.013Z,18.62
2018-11-05T06:52:41.929Z,20.10
2018-11-05T06:53:28.725Z,19.02
2018-11-05T06:54:15.739Z,19.55
2018-11-05T06:55:02.751Z,20.55
2018-11-05T06:55:50.004Z,18.80
2018-11-05T06:56:36.788Z,19.15
2018-11-05T06:57:23.781Z,19.60
2018-11-05T06:58:10.747Z,20.35
2018-11-05T06:58:57.755Z,19.27
2018-11-05T06:59:44.710Z,18.02
2018-11-05T07:00:31.447Z,19.62
2018-11-05T07:01:18.419Z,18.95
2018-11-05T07:02:05.325Z,18.57
2018-11-05T07:02:52.598Z,18.57
2018-11-05T07:03:39.567Z,18.80
2018-11-05T07:04:26.573Z,18.35
2018-11-05T07:05:14.248Z,18.77
2018-11-05T07:06:01.270Z,19.17
2018-11-05T07:06:48.251Z,18.00
2018-11-05T07:07:35.370Z,17.98
2018-11-05T07:08:22.287Z,20.05
2018-11-05T07:09:10.254Z,19.25
2018-11-05T07:09:56.936Z,19.23
2018-11-05T07:10:44.273Z,20.20
2018-11-05T07:11:30.970Z,18.07
2018-11-05T07:12:18.016Z,19.15
2018-11-05T07:13:05.128Z,18.80
2018-11-05T07:13:52.796Z,18.07
2018-11-05T07:14:39.653Z,19.82
2018-11-05T07:15:26.932Z,18.07
2018-11-05T07:16:13.908Z,18.57
2018-11-05T07:17:01.396Z,18.92
2018-11-05T07:17:49.612Z,19.02
2018-11-05T07:18:36.466Z,17.40
2018-11-05T07:19:23.623Z,19.15
2018-11-05T07:20:13.073Z,18.32
2018-11-05T07:21:00.193Z,17.82
2018-11-05T07:21:47.466Z,18.42
2018-11-05T07:22:34.324Z,18.52
2018-11-05T07:23:21.338Z,18.85
2018-11-05T07:24:08.260Z,17.67
2018-11-05T07:24:55.212Z,17.65
2018-11-05T07:25:42.257Z,18.62
2018-11-05T07:26:29.392Z,17.67
2018-11-05T07:27:16.347Z,20.00
2018-11-05T07:28:03.165Z,19.23
2018-11-05T07:28:52.829Z,18.17
2018-11-05T07:29:39.740Z,18.48
2018-11-05T07:30:26.651Z,18.35
2018-11-05T07:31:13.647Z,18.15
2018-11-05T07:32:00.667Z,17.85
2018-11-05T07:32:48.594Z,17.48
2018-11-05T07:33:35.562Z,17.60
2018-11-05T07:34:23.208Z,16.70
2018-11-05T07:35:11.732Z,17.60
2018-11-05T07:35:58.494Z,17.32
2018-11-05T07:36:45.374Z,16.62
2018-11-05T07:37:32.685Z,16.73
2018-11-05T07:38:19.890Z,17.85
2018-11-05T07:39:10.447Z,16.75
2018-11-05T07:39:57.790Z,16.60
2018-11-05T07:40:44.997Z,16.93
2018-11-05T07:41:32.203Z,17.42
2018-11-05T07:42:21.487Z,16.35
2018-11-05T07:43:08.622Z,17.40
2018-11-05T07:43:55.961Z,16.73
2018-11-05T07:44:43.067Z,15.95
2018-11-05T07:45:30.058Z,16.73
2018-11-05T07:46:17.250Z,16.42
2018-11-05T07:47:03.927Z,16.87
2018-11-05T07:47:51.297Z,16.52
2018-11-05T07:48:38.176Z,16.37
2018-11-05T07:49:25.270Z,16.05
2018-11-05T07:50:13.743Z,16.70
2018-11-05T07:51:00.613Z,16.67
2018-11-05T07:51:47.586Z,16.07
2018-11-05T07:52:34.685Z,15.97
2018-11-05T07:53:24.568Z,16.23
2018-11-05T07:54:11.842Z,16.32
2018-11-05T07:54:58.687Z,16.37
2018-11-05T07:55:45.692Z,15.68
2018-11-05T07:56:32.801Z,15.50
2018-11-05T07:57:19.757Z,16.75
2018-11-05T07:58:06.485Z,16.67
2018-11-05T07:58:53.487Z,16.67
2018-11-05T07:59:40.627Z,15.83
2018-11-05T08:00:45.476Z,16.63
2018-11-05T08:01:32.478Z,15.67
2018-11-05T08:02:19.785Z,14.40
2018-11-05T08:03:07.483Z,15.93
2018-11-05T08:03:54.630Z,16.25
2018-11-05T08:04:41.917Z,16.97
2018-11-05T08:05:29.356Z,16.62
2018-11-05T08:06:16.271Z,15.93
2018-11-05T08:07:03.260Z,15.60
2018-11-05T08:07:52.514Z,15.90
2018-11-05T08:08:39.505Z,15.13
2018-11-05T08:09:26.487Z,16.07
2018-11-05T08:10:13.264Z,16.10
2018-11-05T08:11:00.205Z,15.83
2018-11-05T08:11:47.275Z,15.43
2018-11-05T08:12:34.365Z,16.17
2018-11-05T08:13:21.559Z,15.17
2018-11-05T08:14:08.648Z,15.13
2018-11-05T08:14:55.336Z,15.67
2018-11-05T08:15:42.140Z,16.07
2018-11-05T08:16:29.287Z,14.30
2018-11-05T08:17:16.459Z,16.00
2018-11-05T08:18:03.405Z,15.70
2018-11-05T08:18:50.254Z,16.17
2018-11-05T08:19:37.089Z,14.93
2018-11-05T08:20:24.156Z,16.37
2018-11-05T08:21:11.082Z,16.53
2018-11-05T08:21:58.308Z,15.67
2018-11-05T08:22:45.275Z,15.93
2018-11-05T08:23:32.324Z,16.17
2018-11-05T08:24:19.482Z,15.10
2018-11-05T08:25:07.381Z,14.30
2018-11-05T08:25:55.244Z,16.50
2018-11-05T08:26:42.257Z,15.60
2018-11-05T08:27:29.334Z,15.53
2018-11-05T08:28:16.130Z,15.53
2018-11-05T08:29:03.046Z,15.33
2018-11-05T08:29:50.215Z,15.07
2018-11-05T08:30:37.681Z,15.60
2018-11-05T08:31:24.667Z,15.60
2018-11-05T08:32:11.799Z,15.40
2018-11-05T08:32:58.699Z,15.77
2018-11-05T08:33:45.628Z,15.47
2018-11-05T08:34:32.615Z,14.17
2018-11-05T08:35:19.549Z,15.97
2018-11-05T08:36:07.296Z,14.93
2018-11-05T08:36:54.517Z,15.87
2018-11-05T08:37:42.351Z,15.87
2018-11-05T08:38:29.284Z,16.40
2018-11-05T08:39:16.444Z,15.40
2018-11-05T08:40:03.439Z,15.03
2018-11-05T08:41:05.560Z,16.90
2018-11-05T08:41:55.791Z,14.90
2018-11-05T08:42:43.585Z,16.10
2018-11-05T08:43:30.661Z,15.30
2018-11-05T08:44:17.721Z,14.93
2018-11-05T08:45:04.741Z,16.10
2018-11-05T08:45:51.685Z,15.77
2018-11-05T08:46:39.771Z,16.73
2018-11-05T08:47:26.657Z,15.60
2018-11-05T08:48:13.920Z,15.77
2018-11-05T08:49:00.594Z,15.83
2018-11-05T08:49:47.360Z,15.30
2018-11-05T08:50:34.522Z,14.87
2018-11-05T08:51:21.830Z,15.70
2018-11-05T08:52:08.899Z,15.73
2018-11-05T08:52:55.729Z,15.40
2018-11-05T08:53:42.752Z,16.60
2018-11-05T08:54:29.668Z,15.93
2018-11-05T08:55:20.757Z,16.20
2018-11-05T08:56:07.905Z,15.80
2018-11-05T08:56:55.064Z,15.70
2018-11-05T08:57:42.772Z,15.43
2018-11-05T08:58:29.817Z,15.80
2018-11-05T08:59:17.235Z,15.67
2018-11-05T09:00:30.884Z,16.03
2018-11-05T09:01:38.122Z,14.77
2018-11-05T09:02:30.964Z,15.60
2018-11-05T09:03:18.165Z,16.07
2018-11-05T09:04:05.565Z,15.47
2018-11-05T09:04:52.823Z,17.03
2018-11-05T09:05:39.811Z,15.43
2018-11-05T09:06:27.008Z,16.00
2018-11-05T09:07:14.211Z,15.00
2018-11-05T09:08:01.490Z,15.80
2018-11-05T09:08:48.277Z,15.57
2018-11-05T09:09:35.214Z,15.43
2018-11-05T09:10:22.632Z,15.80
2018-11-05T09:11:10.135Z,16.03
2018-11-05T09:11:56.398Z,14.90
2018-11-05T09:12:43.691Z,15.97
2018-11-05T09:13:30.593Z,15.57
2018-11-05T09:14:17.540Z,16.13
2018-11-05T09:15:05.317Z,16.07
2018-11-05T09:15:52.753Z,16.20
2018-11-05T09:16:40.563Z,16.93
2018-11-05T09:17:27.761Z,15.57
2018-11-05T09:18:15.312Z,16.40
2018-11-05T09:19:02.376Z,15.03
2018-11-05T09:19:49.243Z,15.33
2018-11-05T09:20:36.925Z,14.70
2018-11-05T09:21:23.813Z,15.73
2018-11-05T09:22:10.943Z,16.07
2018-11-05T09:22:57.814Z,14.93
2018-11-05T09:23:45.079Z,15.67
2018-11-05T09:24:32.759Z,15.07
2018-11-05T09:25:19.839Z,16.57
2018-11-05T09:26:07.144Z,15.47
2018-11-05T09:26:54.500Z,16.37
2018-11-05T09:27:41.895Z,15.33
2018-11-05T09:28:28.980Z,15.60
2018-11-05T09:29:16.086Z,16.60
2018-11-05T09:30:03.212Z,15.50
2018-11-05T09:30:50.314Z,15.13
2018-11-05T09:31:37.502Z,15.63
2018-11-05T09:32:24.986Z,16.10
2018-11-05T09:33:12.447Z,15.57
2018-11-05T09:33:59.833Z,15.93
2018-11-05T09:34:47.125Z,16.40
2018-11-05T09:35:34.486Z,16.07
2018-11-05T09:36:21.711Z,15.20
2018-11-05T09:37:08.956Z,15.60
2018-11-05T09:37:55.892Z,16.30
2018-11-05T09:38:43.126Z,16.37
2018-11-05T09:39:30.093Z,15.27
2018-11-05T09:40:18.595Z,15.63
2018-11-05T09:41:05.660Z,16.40
2018-11-05T09:41:52.810Z,16.57
2018-11-05T09:42:40.711Z,16.17
2018-11-05T09:43:27.424Z,17.00
2018-11-05T09:44:14.581Z,15.00
2018-11-05T09:45:01.463Z,15.80
2018-11-05T09:45:48.559Z,15.50
2018-11-05T09:46:35.643Z,15.23
2018-11-05T09:47:22.752Z,16.20
2018-11-05T09:48:10.090Z,15.10
2018-11-05T09:48:57.747Z,15.77
2018-11-05T09:49:45.171Z,15.23
2018-11-05T09:50:32.262Z,14.77
2018-11-05T09:51:19.248Z,15.80
2018-11-05T09:52:06.294Z,15.00
2018-11-05T09:52:52.925Z,15.60
2018-11-05T09:53:39.833Z,15.43
2018-11-05T09:54:26.784Z,15.40
2018-11-05T09:55:14.431Z,16.40
2018-11-05T09:56:01.395Z,15.30
2018-11-05T09:56:48.345Z,15.37
2018-11-05T09:57:35.366Z,15.20
2018-11-05T09:58:22.471Z,15.57
2018-11-05T09:59:09.565Z,15.70
2018-11-05T09:59:56.536Z,15.23
2018-11-05T10:00:43.657Z,16.83
2018-11-05T10:01:30.585Z,16.30
2018-11-05T10:02:17.905Z,15.17
2018-11-05T10:03:14.489Z,16.27
2018-11-05T10:04:01.356Z,15.20
2018-11-05T10:04:48.501Z,14.60
2018-11-05T10:05:35.244Z,14.70
2018-11-05T10:06:22.695Z,16.27
2018-11-05T10:07:09.907Z,15.43
2018-11-05T10:07:56.787Z,15.93
2018-11-05T10:08:43.990Z,16.00
2018-11-05T10:09:30.939Z,14.57
2018-11-05T10:10:18.392Z,15.90
2018-11-05T10:11:05.685Z,16.07